Time;durP1;ratioP1;P1;durP2;ratioP2;P2;SDS_P1;SDS_P2;PMS_P1;PMS_P2;Temp;Humidity;BMP_temperature;BMP_pressure;BME280_temperature;BME280_humidity;BME280_pressure;Samples;Min_cycle;Max_cycle;Signal;HPM_P1;HPM_P2
2022/03/04 00:00:17;;;;;;;27.65;17.27;;;;;;;;;;4960874;28;92366;-78
2022/03/04 00:02:43;;;;;;;27.73;17.35;;;;;;;;;;4958288;28;92476;-77
2022/03/04 00:05:10;;;;;;;29.48;17.83;;;;;;;;;;4957434;28;92339;-77
2022/03/04 00:07:36;;;;;;;29.02;17.25;;;;;;;;;;4958611;28;93485;-78
2022/03/04 00:10:03;;;;;;;31.70;18.33;;;;;;;;;;4956848;28;96107;-78
2022/03/04 00:12:29;;;;;;;28.88;18.23;;;;;;;;;;4958690;28;92333;-80
2022/03/04 00:14:58;;;;;;;30.30;18.75;;;;;;;;;;4958458;28;93977;-79
2022/03/04 00:17:24;;;;;;;33.53;19.00;;;;;;;;;;4958513;28;94711;-78
2022/03/04 00:19:51;;;;;;;37.20;19.75;;;;;;;;;;4958626;28;92218;-78
2022/03/04 00:22:20;;;;;;;34.17;21.23;;;;;;;;;;4961575;28;92615;-80
2022/03/04 00:24:46;;;;;;;37.53;22.20;;;;;;;;;;4957671;28;92309;-78
2022/03/04 00:27:13;;;;;;;39.10;21.45;;;;;;;;;;4958917;28;93567;-80
2022/03/04 00:29:39;;;;;;;31.73;19.38;;;;;;;;;;4956943;28;94583;-78
2022/03/04 00:32:08;;;;;;;30.65;19.17;;;;;;;;;;4957544;28;92295;-79
2022/03/04 00:34:34;;;;;;;31.05;18.85;;;;;;;;;;4956534;28;94764;-78
2022/03/04 00:37:01;;;;;;;30.98;19.17;;;;;;;;;;4958279;28;92932;-80
2022/03/04 00:39:27;;;;;;;34.38;19.05;;;;;;;;;;4958243;28;92582;-81
2022/03/04 00:41:53;;;;;;;30.83;19.35;;;;;;;;;;4958502;28;92710;-78
2022/03/04 00:44:20;;;;;;;30.40;18.30;;;;;;;;;;4959866;28;94010;-79
2022/03/04 00:46:46;;;;;;;30.13;18.52;;;;;;;;;;4957923;28;92941;-78
2022/03/04 00:49:13;;;;;;;32.28;18.40;;;;;;;;;;4958170;28;92992;-80
2022/03/04 00:51:39;;;;;;;30.00;18.08;;;;;;;;;;4958317;28;91489;-79
2022/03/04 00:54:06;;;;;;;30.02;17.75;;;;;;;;;;4958663;28;92260;-81
2022/03/04 00:56:32;;;;;;;35.63;19.95;;;;;;;;;;4959158;28;93215;-78
2022/03/04 00:58:59;;;;;;;33.63;19.42;;;;;;;;;;4956383;28;97282;-79
2022/03/04 01:01:25;;;;;;;31.08;19.35;;;;;;;;;;4957776;28;94940;-77
2022/03/04 01:03:52;;;;;;;32.53;18.98;;;;;;;;;;4957720;28;92496;-79
2022/03/04 01:06:18;;;;;;;30.92;18.20;;;;;;;;;;4960121;28;92375;-77
2022/03/04 01:08:45;;;;;;;28.80;18.50;;;;;;;;;;4957806;28;93525;-80
2022/03/04 01:11:13;;;;;;;31.10;19.67;;;;;;;;;;4957902;28;92190;-78
2022/03/04 01:13:39;;;;;;;32.80;19.08;;;;;;;;;;4957576;28;92906;-79
2022/03/04 01:16:06;;;;;;;38.45;20.13;;;;;;;;;;4958189;28;92883;-78
2022/03/04 01:18:32;;;;;;;30.95;19.02;;;;;;;;;;4956864;28;92350;-77
2022/03/04 01:20:59;;;;;;;34.63;20.30;;;;;;;;;;4957493;28;93864;-80
2022/03/04 01:23:26;;;;;;;33.20;19.45;;;;;;;;;;4955999;28;95291;-78
2022/03/04 01:25:52;;;;;;;32.00;18.85;;;;;;;;;;4957722;28;92444;-77
2022/03/04 01:28:20;;;;;;;30.88;19.33;;;;;;;;;;4959017;28;92917;-78
2022/03/04 01:30:47;;;;;;;32.65;18.23;;;;;;;;;;4956450;28;92721;-80
2022/03/04 01:33:13;;;;;;;37.22;21.85;;;;;;;;;;4956147;28;93294;-79
2022/03/04 01:35:40;;;;;;;39.70;21.75;;;;;;;;;;4960882;28;93101;-78
2022/03/04 01:38:07;;;;;;;34.33;19.50;;;;;;;;;;4970718;28;92233;-80
2022/03/04 01:40:34;;;;;;;32.20;19.85;;;;;;;;;;4958146;28;92922;-77
2022/03/04 01:43:00;;;;;;;35.78;18.60;;;;;;;;;;4956812;28;93867;-78
2022/03/04 01:45:27;;;;;;;33.22;19.30;;;;;;;;;;4957160;28;92281;-78
2022/03/04 01:47:53;;;;;;;33.15;19.13;;;;;;;;;;4957989;28;94622;-77
2022/03/04 01:50:20;;;;;;;30.15;17.98;;;;;;;;;;4957310;28;92113;-80
2022/03/04 01:52:46;;;;;;;27.88;17.88;;;;;;;;;;4957030;28;93642;-80
2022/03/04 01:55:13;;;;;;;31.17;18.20;;;;;;;;;;4956950;28;93409;-79
2022/03/04 01:57:39;;;;;;;29.55;18.23;;;;;;;;;;4955305;28;93724;-80
2022/03/04 02:00:07;;;;;;;34.10;18.23;;;;;;;;;;4955722;28;94488;-79
2022/03/04 02:02:37;;;;;;;37.42;19.73;;;;;;;;;;4955207;28;93661;-80
2022/03/04 02:05:04;;;;;;;32.78;18.25;;;;;;;;;;4958575;28;92194;-77
2022/03/04 02:07:30;;;;;;;32.97;17.40;;;;;;;;;;4957813;28;92324;-80
2022/03/04 02:09:57;;;;;;;31.58;18.55;;;;;;;;;;4958156;28;93209;-77
2022/03/04 02:12:23;;;;;;;32.75;18.77;;;;;;;;;;4953825;28;96504;-79
2022/03/04 02:14:50;;;;;;;33.10;18.45;;;;;;;;;;4956419;28;93546;-79
2022/03/04 02:17:16;;;;;;;32.00;18.35;;;;;;;;;;4955689;28;92383;-79
2022/03/04 02:19:43;;;;;;;29.20;18.05;;;;;;;;;;4957133;28;93278;-80
2022/03/04 02:22:09;;;;;;;32.65;18.50;;;;;;;;;;4956761;28;93007;-79
2022/03/04 02:24:36;;;;;;;33.00;18.92;;;;;;;;;;4955347;28;92574;-79
2022/03/04 02:27:03;;;;;;;30.05;18.05;;;;;;;;;;4956618;28;92977;-77
2022/03/04 02:29:31;;;;;;;31.73;17.70;;;;;;;;;;4955913;28;93682;-81
2022/03/04 02:31:57;;;;;;;32.35;18.20;;;;;;;;;;4959716;28;92394;-79
2022/03/04 02:34:23;;;;;;;32.15;17.73;;;;;;;;;;4956545;28;94054;-80
2022/03/04 02:36:50;;;;;;;34.97;18.45;;;;;;;;;;4955354;28;94586;-78
2022/03/04 02:39:16;;;;;;;31.73;18.58;;;;;;;;;;4956636;28;95574;-80
2022/03/04 02:41:43;;;;;;;36.15;18.08;;;;;;;;;;4956428;28;93189;-79
2022/03/04 02:44:10;;;;;;;33.35;18.25;;;;;;;;;;4956502;28;95942;-79
2022/03/04 02:46:37;;;;;;;33.05;17.85;;;;;;;;;;4956824;28;92770;-77
2022/03/04 02:49:07;;;;;;;34.13;19.02;;;;;;;;;;4956503;28;93603;-80
2022/03/04 02:51:35;;;;;;;30.27;17.25;;;;;;;;;;4956603;28;92143;-79
2022/03/04 02:54:01;;;;;;;32.75;19.13;;;;;;;;;;4958427;28;96142;-80
2022/03/04 02:56:30;;;;;;;33.33;19.23;;;;;;;;;;4955448;28;92544;-78
2022/03/04 02:58:58;;;;;;;31.98;18.58;;;;;;;;;;4956643;28;92841;-78
2022/03/04 03:01:27;;;;;;;35.97;18.85;;;;;;;;;;4954014;28;95523;-78
2022/03/04 03:03:54;;;;;;;30.55;18.30;;;;;;;;;;4955142;28;92223;-80
2022/03/04 03:06:20;;;;;;;33.55;18.73;;;;;;;;;;4955937;28;93307;-80
2022/03/04 03:08:47;;;;;;;31.88;18.80;;;;;;;;;;4955162;28;93958;-79
2022/03/04 03:11:14;;;;;;;33.97;18.15;;;;;;;;;;4955287;28;92783;-77
2022/03/04 03:13:41;;;;;;;31.45;17.67;;;;;;;;;;4955809;28;95994;-79
2022/03/04 03:16:07;;;;;;;31.25;18.90;;;;;;;;;;4963602;28;92332;-80
2022/03/04 03:18:34;;;;;;;34.40;18.67;;;;;;;;;;4956586;28;93040;-81
2022/03/04 03:21:01;;;;;;;34.72;18.23;;;;;;;;;;4939935;28;94513;-78
2022/03/04 03:23:27;;;;;;;33.00;17.95;;;;;;;;;;4958262;28;92482;-82
2022/03/04 03:25:54;;;;;;;32.50;18.45;;;;;;;;;;4956895;28;95260;-79
2022/03/04 03:28:20;;;;;;;31.67;17.70;;;;;;;;;;4960744;28;95081;-79
2022/03/04 03:30:46;;;;;;;33.22;17.73;;;;;;;;;;4959540;28;92916;-79
2022/03/04 03:33:13;;;;;;;31.48;17.92;;;;;;;;;;4957525;28;94898;-77
2022/03/04 03:35:39;;;;;;;34.30;18.25;;;;;;;;;;4959274;28;93663;-80
2022/03/04 03:38:06;;;;;;;34.60;18.52;;;;;;;;;;4962110;28;92383;-77
2022/03/04 03:40:32;;;;;;;38.47;19.77;;;;;;;;;;4960708;28;93579;-78
2022/03/04 03:42:59;;;;;;;34.25;18.02;;;;;;;;;;4969814;28;91388;-81
2022/03/04 03:45:25;;;;;;;37.42;18.38;;;;;;;;;;4957733;28;95474;-77
2022/03/04 03:47:53;;;;;;;34.03;18.50;;;;;;;;;;4958658;28;94180;-78
2022/03/04 03:50:20;;;;;;;32.22;18.30;;;;;;;;;;4957413;28;94627;-77
2022/03/04 03:52:46;;;;;;;28.95;17.17;;;;;;;;;;4956563;28;98236;-80
2022/03/04 03:55:13;;;;;;;36.70;18.73;;;;;;;;;;4958350;28;93531;-78
2022/03/04 03:57:39;;;;;;;31.40;18.63;;;;;;;;;;4961234;28;92351;-77
2022/03/04 04:00:06;;;;;;;35.85;19.10;;;;;;;;;;4958040;28;97276;-80
2022/03/04 04:02:37;;;;;;;32.97;17.80;;;;;;;;;;4956853;28;92278;-78
2022/03/04 04:05:04;;;;;;;35.83;19.02;;;;;;;;;;4957230;28;96716;-82
2022/03/04 04:07:31;;;;;;;38.35;19.02;;;;;;;;;;4959402;28;92485;-80
2022/03/04 04:09:57;;;;;;;34.78;19.00;;;;;;;;;;4941379;28;92353;-80
2022/03/04 04:12:25;;;;;;;33.00;18.45;;;;;;;;;;4958715;28;93370;-79
2022/03/04 04:14:52;;;;;;;35.92;17.58;;;;;;;;;;4955560;28;97927;-78
2022/03/04 04:17:19;;;;;;;34.22;18.77;;;;;;;;;;4957385;28;93306;-79
2022/03/04 04:19:45;;;;;;;29.98;17.85;;;;;;;;;;4961316;28;93013;-79
2022/03/04 04:22:11;;;;;;;33.72;19.10;;;;;;;;;;4958483;28;92171;-78
2022/03/04 04:24:38;;;;;;;34.30;18.90;;;;;;;;;;4960714;28;94510;-80
2022/03/04 04:27:06;;;;;;;36.42;19.20;;;;;;;;;;4958717;28;94644;-78
2022/03/04 04:29:33;;;;;;;36.45;19.55;;;;;;;;;;4958559;28;92337;-79
2022/03/04 04:32:00;;;;;;;33.72;18.35;;;;;;;;;;4958484;28;91758;-76
2022/03/04 04:34:27;;;;;;;31.73;18.17;;;;;;;;;;4957910;28;93384;-81
2022/03/04 04:36:54;;;;;;;36.88;18.90;;;;;;;;;;4958915;28;92426;-79
2022/03/04 04:39:20;;;;;;;34.67;18.92;;;;;;;;;;4956978;28;96195;-76
2022/03/04 04:41:46;;;;;;;35.15;19.17;;;;;;;;;;4964202;28;92291;-76
2022/03/04 04:44:13;;;;;;;31.70;17.92;;;;;;;;;;4964129;28;92897;-78
2022/03/04 04:46:39;;;;;;;32.25;18.50;;;;;;;;;;4960784;28;92558;-80
2022/03/04 04:49:06;;;;;;;40.63;19.23;;;;;;;;;;4963660;28;92223;-78
2022/03/04 04:51:32;;;;;;;34.63;18.92;;;;;;;;;;4963223;28;93638;-77
2022/03/04 04:53:59;;;;;;;34.15;17.95;;;;;;;;;;4957846;28;95667;-79
2022/03/04 04:56:25;;;;;;;33.90;19.02;;;;;;;;;;4958992;28;91684;-76
2022/03/04 04:58:51;;;;;;;35.25;18.40;;;;;;;;;;4958948;28;92988;-79
2022/03/04 05:01:18;;;;;;;33.22;18.05;;;;;;;;;;4956732;28;96479;-80
2022/03/04 05:03:45;;;;;;;35.22;19.27;;;;;;;;;;4958408;28;94740;-78
2022/03/04 05:06:11;;;;;;;34.38;18.70;;;;;;;;;;4958108;28;93462;-80
2022/03/04 05:08:37;;;;;;;34.00;18.00;;;;;;;;;;4958254;28;92500;-78
2022/03/04 05:11:04;;;;;;;32.20;19.17;;;;;;;;;;4940282;28;96372;-81
2022/03/04 05:13:30;;;;;;;32.72;18.70;;;;;;;;;;4957374;28;93642;-78
2022/03/04 05:15:57;;;;;;;36.50;19.20;;;;;;;;;;4956051;28;92898;-82
2022/03/04 05:18:23;;;;;;;36.45;19.33;;;;;;;;;;4957610;28;93179;-77
2022/03/04 05:20:50;;;;;;;33.22;19.73;;;;;;;;;;4956884;28;95875;-77
2022/03/04 05:26:03;;;;;;;35.13;18.45;;;;;;;;;;4959607;28;95524;-77
2022/03/04 05:28:30;;;;;;;35.25;18.92;;;;;;;;;;4955580;28;94733;-77
2022/03/04 05:30:57;;;;;;;40.83;18.50;;;;;;;;;;4956557;28;97979;-78
2022/03/04 05:33:23;;;;;;;39.10;19.52;;;;;;;;;;4959982;28;94066;-80
2022/03/04 05:35:50;;;;;;;36.75;19.13;;;;;;;;;;4960506;28;92306;-79
2022/03/04 05:38:16;;;;;;;33.20;18.90;;;;;;;;;;4957497;28;92292;-82
2022/03/04 05:40:43;;;;;;;37.70;20.08;;;;;;;;;;4957539;28;92987;-78
2022/03/04 05:43:09;;;;;;;35.63;19.05;;;;;;;;;;4955485;28;92331;-82
2022/03/04 05:45:36;;;;;;;40.17;19.55;;;;;;;;;;4959115;28;95491;-78
2022/03/04 05:48:02;;;;;;;32.13;18.65;;;;;;;;;;4964337;28;92166;-79
2022/03/04 05:50:29;;;;;;;35.90;19.25;;;;;;;;;;4966285;28;92400;-80
2022/03/04 05:52:56;;;;;;;37.63;18.95;;;;;;;;;;4954349;28;95484;-80
2022/03/04 05:55:22;;;;;;;37.05;19.02;;;;;;;;;;4957146;28;92234;-79
2022/03/04 05:57:49;;;;;;;40.05;20.25;;;;;;;;;;4955896;28;93437;-78
2022/03/04 06:00:15;;;;;;;33.67;17.83;;;;;;;;;;4939543;28;95603;-77
2022/03/04 06:02:41;;;;;;;35.22;19.52;;;;;;;;;;4939834;28;92426;-79
2022/03/04 06:05:10;;;;;;;34.55;19.38;;;;;;;;;;4958941;28;92878;-78
2022/03/04 06:07:36;;;;;;;36.03;20.10;;;;;;;;;;4958602;28;96596;-81
2022/03/04 06:10:03;;;;;;;38.97;20.58;;;;;;;;;;4939951;28;95901;-81
2022/03/04 06:12:29;;;;;;;36.38;19.48;;;;;;;;;;4956590;28;93113;-78
2022/03/04 06:14:56;;;;;;;37.05;19.85;;;;;;;;;;4955617;28;92785;-79
2022/03/04 06:17:22;;;;;;;31.20;18.65;;;;;;;;;;4955191;28;94619;-79
2022/03/04 06:19:48;;;;;;;31.92;18.70;;;;;;;;;;4905718;28;95938;-77
2022/03/04 06:22:18;;;;;;;37.30;20.40;;;;;;;;;;4957020;28;92183;-79
2022/03/04 06:24:44;;;;;;;41.35;20.30;;;;;;;;;;4956819;28;92787;-78
2022/03/04 06:27:11;;;;;;;36.50;20.33;;;;;;;;;;4955588;28;93348;-78
2022/03/04 06:29:37;;;;;;;44.60;21.30;;;;;;;;;;4958370;28;92755;-80
2022/03/04 06:32:04;;;;;;;33.90;19.52;;;;;;;;;;4952528;28;95192;-78
2022/03/04 06:34:30;;;;;;;33.45;20.33;;;;;;;;;;4955338;28;91632;-78
2022/03/04 06:36:57;;;;;;;36.65;19.15;;;;;;;;;;4914779;28;94668;-78
2022/03/04 06:39:23;;;;;;;35.20;19.77;;;;;;;;;;4916290;28;93474;-77
2022/03/04 06:41:50;;;;;;;34.72;19.50;;;;;;;;;;4899088;28;94798;-77
2022/03/04 06:44:16;;;;;;;42.03;21.13;;;;;;;;;;4904035;28;97554;-79
2022/03/04 06:46:43;;;;;;;34.00;19.50;;;;;;;;;;4902144;28;96292;-82
2022/03/04 06:49:12;;;;;;;36.20;19.27;;;;;;;;;;4916070;28;92907;-80
2022/03/04 06:51:39;;;;;;;37.67;19.05;;;;;;;;;;4898418;28;92490;-79
2022/03/04 06:54:06;;;;;;;36.00;19.58;;;;;;;;;;4864298;28;92442;-79
2022/03/04 06:56:32;;;;;;;39.15;19.63;;;;;;;;;;4898756;28;94258;-81
2022/03/04 06:58:59;;;;;;;37.08;19.95;;;;;;;;;;4900713;28;96198;-79
2022/03/04 07:01:25;;;;;;;34.50;19.50;;;;;;;;;;4884394;28;93096;-79
2022/03/04 07:03:52;;;;;;;35.22;19.73;;;;;;;;;;4898760;28;95514;-79
2022/03/04 07:06:19;;;;;;;34.80;19.67;;;;;;;;;;4901043;28;95378;-80
2022/03/04 07:08:46;;;;;;;37.13;19.35;;;;;;;;;;4934018;28;92261;-78
2022/03/04 07:11:12;;;;;;;36.80;18.45;;;;;;;;;;4905749;28;95912;-80
2022/03/04 07:13:39;;;;;;;37.33;18.60;;;;;;;;;;4908971;28;96109;-81
2022/03/04 07:16:05;;;;;;;32.22;19.27;;;;;;;;;;4922196;28;92998;-79
2022/03/04 07:18:33;;;;;;;31.55;18.60;;;;;;;;;;4938212;28;95861;-79
2022/03/04 07:21:00;;;;;;;36.45;19.13;;;;;;;;;;4938277;28;92732;-79
2022/03/04 07:23:28;;;;;;;32.03;18.85;;;;;;;;;;4966562;28;95480;-83
2022/03/04 07:25:55;;;;;;;33.85;17.38;;;;;;;;;;4958089;28;94227;-73
2022/03/04 07:28:22;;;;;;;29.58;18.48;;;;;;;;;;4959414;28;92384;-77
2022/03/04 07:30:48;;;;;;;26.80;17.25;;;;;;;;;;4957170;28;94877;-78
2022/03/04 07:33:14;;;;;;;31.90;18.23;;;;;;;;;;4959165;28;94443;-76
2022/03/04 07:35:45;;;;;;;29.45;17.20;;;;;;;;;;4962050;28;92317;-77
2022/03/04 07:38:13;;;;;;;30.77;18.30;;;;;;;;;;4958996;28;94970;-77
2022/03/04 07:40:42;;;;;;;29.58;18.08;;;;;;;;;;4959088;28;92177;-76
2022/03/04 07:43:11;;;;;;;30.45;18.20;;;;;;;;;;4959212;28;92953;-77
2022/03/04 07:45:39;;;;;;;32.05;17.98;;;;;;;;;;4958561;28;92837;-78
2022/03/04 07:48:13;;;;;;;33.95;18.48;;;;;;;;;;4959488;28;91467;-82
2022/03/04 07:50:40;;;;;;;31.50;17.55;;;;;;;;;;4941357;28;93969;-75
2022/03/04 07:53:07;;;;;;;33.53;18.63;;;;;;;;;;4962192;28;94006;-75
2022/03/04 07:55:33;;;;;;;36.72;18.35;;;;;;;;;;4959968;28;94757;-75
2022/03/04 07:57:59;;;;;;;31.88;18.35;;;;;;;;;;4958582;28;93695;-76
2022/03/04 08:00:26;;;;;;;29.10;16.88;;;;;;;;;;4958728;28;92514;-73
2022/03/04 08:02:54;;;;;;;30.92;17.98;;;;;;;;;;4958108;28;92483;-75
2022/03/04 08:05:21;;;;;;;30.08;18.00;;;;;;;;;;4958717;28;92888;-77
2022/03/04 08:07:48;;;;;;;31.30;18.73;;;;;;;;;;4958558;28;92278;-77
2022/03/04 08:10:15;;;;;;;31.77;18.60;;;;;;;;;;4957383;28;95257;-74
2022/03/04 08:12:45;;;;;;;29.90;17.08;;;;;;;;;;4958162;28;92083;-75
2022/03/04 08:15:15;;;;;;;28.63;18.42;;;;;;;;;;4939502;28;93415;-75
2022/03/04 08:17:43;;;;;;;30.15;17.50;;;;;;;;;;4960921;28;94671;-75
2022/03/04 08:20:11;;;;;;;31.08;18.50;;;;;;;;;;4939809;28;94719;-75
2022/03/04 08:22:38;;;;;;;30.40;17.73;;;;;;;;;;4957452;28;95366;-77
2022/03/04 08:25:05;;;;;;;31.15;17.77;;;;;;;;;;4958436;28;93527;-74
2022/03/04 08:27:35;;;;;;;30.92;17.73;;;;;;;;;;4957046;28;92409;-75
2022/03/04 08:30:02;;;;;;;27.65;17.75;;;;;;;;;;4957923;28;92947;-77
2022/03/04 08:32:28;;;;;;;33.22;18.83;;;;;;;;;;4958051;28;93464;-75
2022/03/04 08:34:59;;;;;;;30.73;18.08;;;;;;;;;;4958240;28;92493;-75
2022/03/04 08:37:25;;;;;;;26.27;17.42;;;;;;;;;;4957135;28;94511;-75
2022/03/04 08:39:52;;;;;;;28.35;17.23;;;;;;;;;;4959801;28;95136;-76
2022/03/04 08:42:18;;;;;;;30.23;17.38;;;;;;;;;;4957955;28;93858;-73
2022/03/04 08:44:44;;;;;;;34.05;19.10;;;;;;;;;;4954299;28;98967;-76
2022/03/04 08:47:11;;;;;;;29.20;18.73;;;;;;;;;;4958030;28;92281;-75
2022/03/04 08:49:37;;;;;;;27.90;18.23;;;;;;;;;;4957899;28;93720;-75
2022/03/04 08:52:04;;;;;;;30.20;18.67;;;;;;;;;;4957941;28;94020;-75
2022/03/04 08:54:31;;;;;;;29.00;18.45;;;;;;;;;;4958018;28;92313;-75
2022/03/04 08:56:57;;;;;;;30.95;19.33;;;;;;;;;;4957691;28;93629;-76
2022/03/04 08:59:23;;;;;;;29.30;17.90;;;;;;;;;;4957210;28;93929;-74
2022/03/04 09:01:50;;;;;;;26.60;18.60;;;;;;;;;;4961106;28;91556;-75
2022/03/04 09:04:17;;;;;;;30.48;18.65;;;;;;;;;;4957499;28;93544;-75
2022/03/04 09:06:44;;;;;;;32.38;18.00;;;;;;;;;;4957744;28;92354;-75
2022/03/04 09:09:11;;;;;;;28.58;18.55;;;;;;;;;;4956269;28;94560;-75
2022/03/04 09:11:38;;;;;;;28.38;18.08;;;;;;;;;;4957594;28;93409;-75
2022/03/04 09:14:05;;;;;;;38.08;19.42;;;;;;;;;;4957150;28;92830;-74
2022/03/04 09:16:31;;;;;;;27.98;18.60;;;;;;;;;;4957482;28;93556;-74
2022/03/04 09:18:58;;;;;;;29.95;18.85;;;;;;;;;;4957318;28;93217;-74
2022/03/04 09:21:24;;;;;;;27.23;18.67;;;;;;;;;;4958012;28;92386;-75
2022/03/04 09:23:51;;;;;;;27.55;17.98;;;;;;;;;;4965559;28;92863;-75
2022/03/04 09:26:18;;;;;;;32.83;19.27;;;;;;;;;;4960805;28;91646;-73
2022/03/04 09:28:47;;;;;;;31.33;17.77;;;;;;;;;;4956811;28;95186;-74
2022/03/04 09:31:13;;;;;;;28.08;17.35;;;;;;;;;;4957702;28;93239;-73
2022/03/04 09:33:40;;;;;;;29.65;17.10;;;;;;;;;;4956510;28;94737;-74
2022/03/04 09:36:11;;;;;;;28.65;17.73;;;;;;;;;;4957157;28;96026;-75
2022/03/04 09:38:38;;;;;;;30.23;18.13;;;;;;;;;;4956981;28;92653;-75
2022/03/04 09:41:04;;;;;;;29.38;16.63;;;;;;;;;;4956639;28;92371;-79
2022/03/04 09:43:32;;;;;;;27.30;17.10;;;;;;;;;;4955639;28;94365;-75
2022/03/04 09:45:58;;;;;;;26.00;17.42;;;;;;;;;;4960128;28;93842;-79
2022/03/04 09:48:24;;;;;;;27.85;16.10;;;;;;;;;;4957171;28;93541;-76
2022/03/04 09:50:53;;;;;;;28.45;17.00;;;;;;;;;;4957283;28;93848;-76
2022/03/04 09:53:19;;;;;;;24.25;16.33;;;;;;;;;;4957250;28;92495;-76
2022/03/04 09:55:49;;;;;;;30.60;17.05;;;;;;;;;;4960443;28;92337;-80
2022/03/04 09:58:16;;;;;;;28.50;16.33;;;;;;;;;;4955630;28;96391;-74
2022/03/04 10:00:43;;;;;;;26.08;17.13;;;;;;;;;;4955667;28;92289;-75
2022/03/04 10:03:28;;;;;;;25.52;16.98;;;;;;;;;;4956911;28;92416;-75
2022/03/04 10:05:55;;;;;;;28.55;17.48;;;;;;;;;;4958209;28;94532;-78
2022/03/04 10:08:22;;;;;;;28.15;16.40;;;;;;;;;;4956397;28;93993;-71
2022/03/04 10:10:54;;;;;;;26.65;16.63;;;;;;;;;;4956977;28;93129;-74
2022/03/04 10:13:39;;;;;;;26.88;16.63;;;;;;;;;;4959173;28;92394;-80
2022/03/04 10:16:05;;;;;;;24.35;16.85;;;;;;;;;;4957200;28;94278;-76
2022/03/04 10:18:32;;;;;;;34.20;21.50;;;;;;;;;;4955664;28;95016;-81
2022/03/04 10:20:59;;;;;;;33.67;22.02;;;;;;;;;;4955769;28;95347;-79
2022/03/04 10:23:26;;;;;;;25.48;17.02;;;;;;;;;;4954006;28;94545;-78
2022/03/04 10:25:56;;;;;;;27.00;16.85;;;;;;;;;;4955657;28;94002;-79
2022/03/04 10:28:25;;;;;;;26.00;16.38;;;;;;;;;;4961850;28;92239;-78
2022/03/04 10:30:52;;;;;;;26.25;16.83;;;;;;;;;;4958567;28;92849;-77
2022/03/04 10:33:23;;;;;;;29.77;16.75;;;;;;;;;;4958483;28;92394;-77
2022/03/04 10:36:07;;;;;;;22.75;15.88;;;;;;;;;;4959781;28;93452;-78
2022/03/04 10:38:33;;;;;;;28.15;16.10;;;;;;;;;;4959909;28;93362;-77
2022/03/04 10:41:19;;;;;;;26.77;16.75;;;;;;;;;;4960435;28;91570;-77
2022/03/04 10:43:46;;;;;;;27.92;16.90;;;;;;;;;;4959329;28;92899;-78
2022/03/04 10:46:13;;;;;;;23.10;16.15;;;;;;;;;;4959803;28;93744;-78
2022/03/04 10:48:50;;;;;;;27.92;16.05;;;;;;;;;;4958373;28;94617;-76
2022/03/04 10:51:31;;;;;;;27.63;15.98;;;;;;;;;;4962579;28;96481;-79
2022/03/04 10:54:11;;;;;;;24.60;16.40;;;;;;;;;;4941455;28;93485;-78
2022/03/04 10:56:51;;;;;;;35.97;16.17;;;;;;;;;;4942103;28;96313;-77
2022/03/04 10:59:18;;;;;;;22.48;15.50;;;;;;;;;;4959842;28;93690;-77
2022/03/04 11:01:46;;;;;;;23.42;16.02;;;;;;;;;;4958657;28;92431;-78
2022/03/04 11:04:13;;;;;;;26.55;16.48;;;;;;;;;;4958576;28;97057;-78
2022/03/04 11:06:42;;;;;;;23.45;16.05;;;;;;;;;;4958813;28;91557;-79
2022/03/04 11:09:08;;;;;;;23.17;16.15;;;;;;;;;;4958673;28;92338;-74
2022/03/04 11:11:34;;;;;;;22.75;16.25;;;;;;;;;;4959708;28;92920;-77
2022/03/04 11:14:01;;;;;;;25.33;16.02;;;;;;;;;;4960634;28;95859;-73
2022/03/04 11:16:27;;;;;;;27.88;15.82;;;;;;;;;;4958976;28;96880;-79
2022/03/04 11:18:54;;;;;;;23.77;15.60;;;;;;;;;;4959686;28;92865;-79
2022/03/04 11:21:21;;;;;;;24.67;15.40;;;;;;;;;;4958330;28;92883;-78
2022/03/04 11:23:47;;;;;;;23.05;15.68;;;;;;;;;;4958498;28;92979;-78
2022/03/04 11:26:17;;;;;;;24.40;16.15;;;;;;;;;;4959555;28;92865;-78
2022/03/04 11:28:51;;;;;;;24.42;16.25;;;;;;;;;;4958298;28;92467;-76
2022/03/04 11:31:20;;;;;;;23.77;15.20;;;;;;;;;;4959135;28;93030;-80
2022/03/04 11:33:49;;;;;;;24.00;16.02;;;;;;;;;;4958823;28;92820;-79
2022/03/04 11:36:17;;;;;;;22.23;15.75;;;;;;;;;;4962160;28;92268;-79
2022/03/04 11:38:43;;;;;;;21.63;15.25;;;;;;;;;;4956946;28;95842;-79
2022/03/04 11:41:16;;;;;;;23.42;16.52;;;;;;;;;;4958708;28;93052;-80
2022/03/04 11:44:08;;;;;;;26.90;16.65;;;;;;;;;;4958890;28;92538;-77
2022/03/04 11:46:51;;;;;;;24.73;15.50;;;;;;;;;;4959075;28;92968;-77
2022/03/04 11:49:25;;;;;;;24.80;16.17;;;;;;;;;;4957999;28;92564;-79
2022/03/04 11:52:10;;;;;;;20.35;15.40;;;;;;;;;;4959895;28;92812;-79
2022/03/04 11:54:43;;;;;;;22.73;15.48;;;;;;;;;;4972989;28;92792;-80
2022/03/04 11:57:21;;;;;;;21.17;14.73;;;;;;;;;;4966227;28;91589;-75
2022/03/04 11:59:49;;;;;;;21.23;15.13;;;;;;;;;;4962117;28;92569;-78
2022/03/04 12:02:19;;;;;;;26.30;15.05;;;;;;;;;;4958782;28;92326;-73
2022/03/04 12:05:12;;;;;;;17.70;13.48;;;;;;;;;;4957382;28;94673;-76
2022/03/04 12:07:42;;;;;;;26.60;16.33;;;;;;;;;;4953384;28;93029;-76
2022/03/04 12:10:29;;;;;;;20.73;14.98;;;;;;;;;;4958507;28;92307;-78
2022/03/04 12:12:59;;;;;;;22.45;15.23;;;;;;;;;;4958131;28;94281;-77
2022/03/04 12:15:26;;;;;;;17.92;14.32;;;;;;;;;;4957962;28;93769;-78
2022/03/04 12:18:02;;;;;;;20.02;13.77;;;;;;;;;;4958273;28;92970;-77
2022/03/04 12:20:40;;;;;;;20.65;14.80;;;;;;;;;;4959963;28;96828;-78
2022/03/04 12:23:07;;;;;;;21.52;14.90;;;;;;;;;;4958342;28;91616;-77
2022/03/04 12:25:52;;;;;;;18.23;13.68;;;;;;;;;;4958305;28;92593;-79
2022/03/04 12:28:45;;;;;;;20.08;13.70;;;;;;;;;;4956760;28;95275;-78
2022/03/04 12:31:11;;;;;;;21.65;14.52;;;;;;;;;;4956217;28;95051;-77
2022/03/04 12:33:39;;;;;;;21.15;14.05;;;;;;;;;;4956741;28;98015;-77
2022/03/04 12:36:12;;;;;;;20.20;14.25;;;;;;;;;;4956527;28;94918;-80
2022/03/04 12:38:41;;;;;;;17.80;12.38;;;;;;;;;;4958176;28;92392;-78
2022/03/04 12:41:14;;;;;;;19.10;13.27;;;;;;;;;;4956982;28;96011;-79
2022/03/04 12:43:40;;;;;;;17.65;13.45;;;;;;;;;;4960965;28;92883;-78
2022/03/04 12:46:07;;;;;;;16.55;12.80;;;;;;;;;;4958156;28;93907;-77
2022/03/04 12:48:33;;;;;;;20.65;12.98;;;;;;;;;;4960012;28;93837;-77
2022/03/04 12:51:00;;;;;;;18.95;12.23;;;;;;;;;;4974141;28;92340;-78
2022/03/04 12:53:28;;;;;;;14.70;10.48;;;;;;;;;;4975733;28;94443;-79
2022/03/04 12:55:55;;;;;;;10.73;8.10;;;;;;;;;;4974692;28;98193;-80
2022/03/04 12:58:32;;;;;;;12.73;8.60;;;;;;;;;;4977052;28;93083;-80
2022/03/04 13:01:01;;;;;;;11.77;9.32;;;;;;;;;;4978075;28;93179;-81
2022/03/04 13:03:31;;;;;;;15.55;8.80;;;;;;;;;;4976345;28;96406;-81
2022/03/04 13:05:58;;;;;;;10.75;8.07;;;;;;;;;;4979871;28;92347;-79
2022/03/04 13:08:24;;;;;;;12.43;9.65;;;;;;;;;;4973953;28;95806;-78
2022/03/04 13:10:55;;;;;;;21.33;11.52;;;;;;;;;;4978160;28;92231;-80
2022/03/04 13:13:22;;;;;;;7.30;5.70;;;;;;;;;;4975682;28;92883;-79
2022/03/04 13:15:52;;;;;;;6.28;5.68;;;;;;;;;;4976227;28;95932;-81
2022/03/04 13:18:22;;;;;;;6.03;5.43;;;;;;;;;;4960274;28;92380;-82
2022/03/04 13:21:06;;;;;;;8.60;7.00;;;;;;;;;;4976435;28;94905;-80
2022/03/04 13:23:33;;;;;;;11.90;8.57;;;;;;;;;;4977796;28;93715;-80
2022/03/04 13:26:12;;;;;;;10.38;7.38;;;;;;;;;;4976622;28;92334;-80
2022/03/04 13:28:52;;;;;;;10.02;7.53;;;;;;;;;;4979234;28;96192;-80
2022/03/04 13:31:36;;;;;;;11.73;7.55;;;;;;;;;;4976652;28;92503;-80
2022/03/04 13:34:04;;;;;;;10.25;6.80;;;;;;;;;;4977212;28;93873;-83
2022/03/04 13:36:50;;;;;;;11.13;8.13;;;;;;;;;;4961677;28;95525;-81
2022/03/04 13:39:16;;;;;;;8.80;7.90;;;;;;;;;;4978245;28;91689;-80
2022/03/04 13:42:06;;;;;;;13.00;7.75;;;;;;;;;;4976489;28;94124;-81
2022/03/04 13:44:32;;;;;;;11.40;8.40;;;;;;;;;;4976015;28;96357;-81
2022/03/04 13:47:03;;;;;;;12.57;7.57;;;;;;;;;;4958836;28;94675;-79
2022/03/04 13:49:49;;;;;;;10.25;8.10;;;;;;;;;;4977401;28;95436;-78
2022/03/04 13:52:16;;;;;;;9.80;7.32;;;;;;;;;;4979504;28;93535;-78
2022/03/04 13:54:47;;;;;;;9.52;7.97;;;;;;;;;;4977607;28;96095;-80
2022/03/04 13:57:33;;;;;;;8.73;7.18;;;;;;;;;;4985610;28;93323;-77
2022/03/04 14:00:00;;;;;;;9.15;7.57;;;;;;;;;;4977104;28;92365;-80
2022/03/04 14:02:37;;;;;;;10.20;7.97;;;;;;;;;;4975673;28;92650;-79
2022/03/04 14:05:04;;;;;;;9.13;7.53;;;;;;;;;;4976616;28;93806;-78
2022/03/04 14:07:42;;;;;;;11.90;7.68;;;;;;;;;;4977336;28;92236;-79
2022/03/04 14:10:09;;;;;;;12.98;8.07;;;;;;;;;;4976882;28;93354;-79
2022/03/04 14:12:35;;;;;;;13.82;7.95;;;;;;;;;;4975281;28;95576;-78
2022/03/04 14:15:02;;;;;;;10.43;8.10;;;;;;;;;;4980142;28;92144;-77
2022/03/04 14:17:28;;;;;;;13.05;7.95;;;;;;;;;;4977135;28;93262;-77
2022/03/04 14:19:56;;;;;;;9.55;7.40;;;;;;;;;;4961687;28;92456;-77
2022/03/04 14:22:22;;;;;;;9.82;7.22;;;;;;;;;;4957121;28;92345;-78
2022/03/04 14:24:50;;;;;;;13.27;8.30;;;;;;;;;;4956511;28;92970;-77
2022/03/04 14:27:17;;;;;;;9.75;8.30;;;;;;;;;;4957424;28;92432;-78